createdAt,value
2023-03-19T00:04:04.568Z,4.25
2023-03-19T00:09:27.311Z,4.28
2023-03-19T00:14:49.446Z,4.32
2023-03-19T00:20:12.549Z,4.50
2023-03-19T00:25:34.386Z,5.15
2023-03-19T00:30:56.993Z,4.45
2023-03-19T00:36:19.568Z,4.57
2023-03-19T00:41:41.314Z,5.38
2023-03-19T00:47:03.182Z,5.50
2023-03-19T00:52:26.086Z,6.10
2023-03-19T00:57:47.763Z,6.00
2023-03-19T01:03:09.520Z,6.22
2023-03-19T01:08:31.425Z,6.25
2023-03-19T01:13:53.520Z,5.78
2023-03-19T01:19:16.314Z,6.20
2023-03-19T01:24:38.046Z,5.78
2023-03-19T01:29:59.817Z,6.30
2023-03-19T01:35:22.285Z,6.05
2023-03-19T01:40:48.544Z,4.65
2023-03-19T01:46:36.439Z,4.45
2023-03-19T01:52:01.300Z,3.38
2023-03-19T01:57:24.111Z,3.47
2023-03-19T02:02:50.096Z,3.08
2023-03-19T02:08:15.484Z,2.75
2023-03-19T02:13:37.743Z,2.47
2023-03-19T02:19:00.807Z,2.90
2023-03-19T02:24:39.002Z,2.35
2023-03-19T02:30:02.791Z,2.40
2023-03-19T02:35:26.835Z,2.50
2023-03-19T02:41:05.266Z,2.30
2023-03-19T02:46:27.077Z,2.97
2023-03-19T02:51:49.109Z,2.58
2023-03-19T02:57:11.011Z,2.60
2023-03-19T03:02:33.448Z,3.40
2023-03-19T03:07:55.361Z,2.78
2023-03-19T03:13:17.188Z,2.50
2023-03-19T03:18:39.006Z,2.83
2023-03-19T03:24:01.327Z,3.40
2023-03-19T03:29:23.117Z,3.35
2023-03-19T03:34:46.369Z,3.22
2023-03-19T03:40:09.206Z,3.33
2023-03-19T03:45:31.000Z,2.58
2023-03-19T03:50:52.821Z,2.97
2023-03-19T03:56:14.599Z,3.00
2023-03-19T04:01:36.977Z,3.28
2023-03-19T04:06:58.738Z,3.25
2023-03-19T04:12:20.935Z,3.28
2023-03-19T04:17:43.046Z,3.17
2023-03-19T04:23:04.786Z,3.70
2023-03-19T04:28:26.565Z,3.78
2023-03-19T04:33:48.560Z,3.35
2023-03-19T04:39:10.385Z,3.35
2023-03-19T04:44:32.171Z,3.40
2023-03-19T04:49:53.953Z,3.50
2023-03-19T04:55:15.810Z,3.63
2023-03-19T05:00:37.608Z,3.75
2023-03-19T05:05:59.446Z,3.63
2023-03-19T05:11:21.623Z,3.90
2023-03-19T05:16:43.409Z,4.13
2023-03-19T05:22:05.258Z,4.07
2023-03-19T05:27:27.365Z,3.60
2023-03-19T05:32:50.262Z,3.42
2023-03-19T05:38:12.388Z,3.33
2023-03-19T05:43:34.601Z,3.80
2023-03-19T05:48:56.311Z,3.60
2023-03-19T05:54:18.174Z,3.90
2023-03-19T05:59:39.898Z,4.10
2023-03-19T06:05:01.739Z,3.60
2023-03-19T06:10:23.582Z,3.35
2023-03-19T06:15:45.656Z,2.88
2023-03-19T06:21:07.393Z,3.20
2023-03-19T06:26:29.113Z,3.72
2023-03-19T06:31:50.993Z,3.90
2023-03-19T06:37:12.878Z,3.67
2023-03-19T06:42:34.660Z,2.90
2023-03-19T06:47:57.144Z,2.83
2023-03-19T06:53:18.894Z,2.75
2023-03-19T06:58:40.738Z,3.55
2023-03-19T07:04:02.517Z,3.45
2023-03-19T07:09:24.286Z,3.67
2023-03-19T07:14:46.198Z,4.13
2023-03-19T07:20:08.401Z,3.90
2023-03-19T07:25:30.229Z,3.53
2023-03-19T07:30:53.302Z,3.38
2023-03-19T07:36:15.044Z,3.67
2023-03-19T07:41:37.140Z,4.05
2023-03-19T07:46:58.988Z,4.03
2023-03-19T07:52:21.722Z,3.85
2023-03-19T07:57:43.534Z,3.55
2023-03-19T08:03:05.436Z,3.53
2023-03-19T08:08:27.212Z,2.90
2023-03-19T08:13:48.944Z,2.70
2023-03-19T08:19:10.661Z,3.22
2023-03-19T08:24:32.364Z,3.95
2023-03-19T08:29:54.106Z,4.43
2023-03-19T08:35:16.342Z,3.55
2023-03-19T08:40:38.064Z,4.03
2023-03-19T08:46:01.296Z,4.18
2023-03-19T08:51:28.785Z,3.80
2023-03-19T08:56:50.558Z,3.70
2023-03-19T09:02:13.222Z,2.85
2023-03-19T09:07:35.258Z,2.95
2023-03-19T09:12:56.970Z,3.10
2023-03-19T09:18:20.736Z,2.55
2023-03-19T09:23:42.479Z,2.33
2023-03-19T09:29:04.951Z,2.65
2023-03-19T09:34:26.931Z,2.35
2023-03-19T09:39:48.655Z,2.25
2023-03-19T09:45:16.734Z,2.47
2023-03-19T09:50:38.624Z,2.15
2023-03-19T09:56:04.330Z,2.33
2023-03-19T10:01:35.440Z,2.45
2023-03-19T10:07:13.346Z,2.22
2023-03-19T10:12:48.472Z,2.10
2023-03-19T10:18:15.843Z,2.08
2023-03-19T10:23:56.126Z,1.92
2023-03-19T10:29:23.511Z,1.90
2023-03-19T10:34:48.885Z,1.92
2023-03-19T10:40:44.796Z,1.67
2023-03-19T10:46:15.759Z,1.60
2023-03-19T10:51:39.809Z,1.70
2023-03-19T10:57:01.569Z,1.88
2023-03-19T11:02:30.987Z,1.58
2023-03-19T11:08:02.779Z,1.55
2023-03-19T11:13:26.519Z,2.22
2023-03-19T11:18:49.816Z,1.70
2023-03-19T11:24:12.727Z,1.70
2023-03-19T11:29:40.607Z,1.70
2023-03-19T11:35:22.448Z,1.58
2023-03-19T11:41:02.117Z,1.70
2023-03-19T11:46:39.257Z,1.50
2023-03-19T11:52:05.758Z,1.80
2023-03-19T11:57:35.024Z,1.50
2023-03-19T12:03:19.623Z,1.42
2023-03-19T12:09:14.765Z,1.70
2023-03-19T12:14:47.575Z,1.70
2023-03-19T12:20:41.704Z,1.73
2023-03-19T12:26:09.066Z,2.15
2023-03-19T12:32:05.472Z,1.73
2023-03-19T12:37:36.449Z,1.50
2023-03-19T12:42:59.760Z,1.80
2023-03-19T12:48:31.929Z,1.90
2023-03-19T12:54:11.960Z,2.10
2023-03-19T12:59:37.997Z,1.90
2023-03-19T13:05:05.588Z,1.80
2023-03-19T13:10:30.593Z,1.80
2023-03-19T13:15:59.055Z,1.48
2023-03-19T13:21:25.199Z,2.90
2023-03-19T13:26:49.389Z,2.05
2023-03-19T13:32:29.561Z,2.33
2023-03-19T13:37:57.920Z,1.92
2023-03-19T13:43:41.664Z,2.10
2023-03-19T13:49:28.089Z,1.90
2023-03-19T13:54:54.536Z,2.20
2023-03-19T14:00:45.008Z,1.90
2023-03-19T14:06:34.773Z,1.95
2023-03-19T14:12:10.220Z,1.80
2023-03-19T14:17:42.030Z,2.40
2023-03-19T14:23:11.378Z,1.83
2023-03-19T14:28:58.162Z,1.85
2023-03-19T14:34:21.691Z,2.05
2023-03-19T14:39:46.319Z,2.15
2023-03-19T14:45:26.893Z,2.10
2023-03-19T14:51:00.846Z,2.30
2023-03-19T14:56:31.077Z,2.00
2023-03-19T15:01:54.545Z,2.60
2023-03-19T15:07:25.299Z,1.88
2023-03-19T15:12:54.103Z,2.28
2023-03-19T15:18:16.432Z,1.70
2023-03-19T15:23:41.129Z,1.83
2023-03-19T15:29:04.435Z,1.50
2023-03-19T15:34:28.980Z,2.05
2023-03-19T15:39:54.191Z,2.58
2023-03-19T15:45:19.925Z,2.10
2023-03-19T15:50:45.361Z,1.95
2023-03-19T15:56:08.233Z,2.03
2023-03-19T16:01:33.167Z,1.73
2023-03-19T16:06:57.863Z,1.70
2023-03-19T16:12:37.641Z,2.25
2023-03-19T16:18:18.041Z,1.98
2023-03-19T16:23:49.927Z,2.20
2023-03-19T16:29:27.651Z,2.20
2023-03-19T16:35:11.944Z,2.22
2023-03-19T16:40:41.611Z,3.13
2023-03-19T16:46:06.568Z,2.70
2023-03-19T16:51:28.447Z,2.78
2023-03-19T16:56:50.368Z,2.20
2023-03-19T17:02:14.798Z,3.42
2023-03-19T17:07:36.523Z,3.47
2023-03-19T17:13:00.575Z,4.00
2023-03-19T17:18:28.220Z,3.67
2023-03-19T17:23:50.007Z,3.20
2023-03-19T17:29:11.979Z,2.50
2023-03-19T17:34:35.498Z,2.70
2023-03-19T17:39:57.492Z,2.55
2023-03-19T17:45:25.121Z,2.25
2023-03-19T17:50:46.985Z,2.42
2023-03-19T17:56:15.285Z,3.10
2023-03-19T18:01:38.448Z,3.28
2023-03-19T18:07:00.409Z,2.85
2023-03-19T18:12:22.168Z,1.88
2023-03-19T18:17:52.950Z,3.25
2023-03-19T18:23:18.406Z,2.67
2023-03-19T18:28:40.344Z,2.47
2023-03-19T18:34:05.863Z,2.90
2023-03-19T18:39:27.623Z,3.95
2023-03-19T18:44:49.483Z,2.65
2023-03-19T18:50:23.227Z,3.58
2023-03-19T18:55:45.366Z,2.40
2023-03-19T19:01:07.201Z,3.05
2023-03-19T19:06:46.734Z,3.80
2023-03-19T19:12:13.470Z,3.20
2023-03-19T19:17:35.597Z,3.78
2023-03-19T19:22:57.468Z,3.58
2023-03-19T19:28:30.500Z,13.48
2023-03-19T19:33:53.593Z,5.95
2023-03-19T19:39:15.401Z,3.83
2023-03-19T19:44:37.287Z,3.80
2023-03-19T19:49:59.085Z,4.40
2023-03-19T19:55:22.635Z,4.28
2023-03-19T20:00:53.220Z,3.60
2023-03-19T20:06:22.312Z,3.42
2023-03-19T20:11:45.864Z,3.38
2023-03-19T20:17:14.045Z,3.80
2023-03-19T20:22:36.851Z,3.35
2023-03-19T20:28:00.689Z,3.30
2023-03-19T20:33:22.712Z,2.90
2023-03-19T20:38:44.476Z,4.60
2023-03-19T20:44:06.709Z,3.30
2023-03-19T20:49:30.784Z,4.88
2023-03-19T20:54:52.818Z,4.20
2023-03-19T21:00:35.420Z,3.97
2023-03-19T21:06:21.672Z,4.00
2023-03-19T21:11:44.725Z,4.10
2023-03-19T21:17:06.558Z,4.22
2023-03-19T21:22:30.583Z,4.63
2023-03-19T21:27:55.010Z,4.55
2023-03-19T21:33:28.928Z,5.18
2023-03-19T21:38:52.503Z,4.93
2023-03-19T21:44:19.488Z,5.20
2023-03-19T21:49:41.323Z,5.28
2023-03-19T21:55:03.522Z,4.57
2023-03-19T22:00:25.993Z,9.57
2023-03-19T22:05:52.488Z,7.93
2023-03-19T22:11:22.770Z,5.50
2023-03-19T22:16:46.408Z,5.28
2023-03-19T22:22:09.209Z,5.15
2023-03-19T22:27:31.276Z,6.50
2023-03-19T22:32:55.993Z,5.40
2023-03-19T22:38:19.753Z,7.50
2023-03-19T22:43:42.468Z,6.90
2023-03-19T22:49:13.452Z,6.47
2023-03-19T22:54:35.252Z,6.47
2023-03-19T22:59:56.990Z,6.05
2023-03-19T23:05:34.232Z,5.80
2023-03-19T23:10:56.499Z,4.75
2023-03-19T23:16:23.877Z,3.90
2023-03-19T23:21:45.854Z,3.60
2023-03-19T23:27:21.470Z,3.85
2023-03-19T23:32:43.843Z,3.22
2023-03-19T23:38:05.690Z,2.75
2023-03-19T23:43:28.881Z,3.25
2023-03-19T23:48:50.696Z,2.65
2023-03-19T23:54:34.171Z,2.70
2023-03-19T23:59:56.206Z,2.42
